createdAt,value
2019-03-13T00:00:15.939Z,99368.63
2019-03-13T00:02:45.632Z,99375.01
2019-03-13T00:05:15.175Z,99391.59
2019-03-13T00:07:44.853Z,99387.52
2019-03-13T00:10:14.394Z,99426.23
2019-03-13T00:12:44.074Z,99412.16
2019-03-13T00:15:13.810Z,99419.27
2019-03-13T00:17:43.412Z,99418.41
2019-03-13T00:20:13.086Z,99429.73
2019-03-13T00:22:42.621Z,99429.30
2019-03-13T00:25:12.421Z,99443.44
2019-03-13T00:27:42.152Z,99450.38
2019-03-13T00:30:11.901Z,99455.28
2019-03-13T00:32:41.496Z,99467.71
2019-03-13T00:35:11.359Z,99480.68
2019-03-13T00:37:41.095Z,99478.91
2019-03-13T00:40:10.875Z,99480.06
2019-03-13T00:42:40.453Z,99481.05
2019-03-13T00:45:10.093Z,99498.16
2019-03-13T00:47:39.810Z,99509.12
2019-03-13T00:50:09.524Z,99504.80
2019-03-13T00:52:39.136Z,99519.02
2019-03-13T00:55:08.930Z,99524.03
2019-03-13T00:57:38.582Z,99532.34
2019-03-13T01:00:08.433Z,99519.55
2019-03-13T01:02:40.553Z,99541.55
2019-03-13T01:05:23.472Z,99527.00
2019-03-13T01:07:53.103Z,99539.63
2019-03-13T01:10:22.735Z,99544.81
2019-03-13T01:12:52.321Z,99548.80
2019-03-13T01:15:22.063Z,99562.48
2019-03-13T01:17:51.617Z,99564.59
2019-03-13T01:20:21.195Z,99570.31
2019-03-13T01:22:50.861Z,99572.83
2019-03-13T01:25:20.501Z,99574.02
2019-03-13T01:27:50.149Z,99562.69
2019-03-13T01:30:19.801Z,99564.78
2019-03-13T01:32:54.693Z,99569.73
2019-03-13T01:35:30.847Z,99570.25
2019-03-13T01:38:00.599Z,99579.06
2019-03-13T01:40:30.291Z,99587.38
2019-03-13T01:42:59.910Z,99586.38
2019-03-13T01:45:29.588Z,99593.80
2019-03-13T01:47:59.294Z,99604.91
2019-03-13T01:50:29.053Z,99600.67
2019-03-13T01:52:58.970Z,99609.84
2019-03-13T01:55:28.770Z,99612.00
2019-03-13T01:57:59.287Z,99621.03
2019-03-13T02:00:29.601Z,99613.82
2019-03-13T02:02:59.607Z,99616.12
2019-03-13T02:05:29.730Z,99621.88
2019-03-13T02:07:59.384Z,99630.13
2019-03-13T02:10:29.045Z,99632.86
2019-03-13T02:12:58.868Z,99636.06
2019-03-13T02:15:28.881Z,99633.81
2019-03-13T02:17:59.099Z,99633.97
2019-03-13T02:20:29.224Z,99642.08
2019-03-13T02:22:59.103Z,99645.92
2019-03-13T02:25:28.945Z,99646.05
2019-03-13T02:27:59.067Z,99650.33
2019-03-13T02:30:30.822Z,99642.91
2019-03-13T02:33:00.848Z,99644.59
2019-03-13T02:35:30.887Z,99642.70
2019-03-13T02:38:00.566Z,99627.89
2019-03-13T02:40:30.817Z,99636.71
2019-03-13T02:43:00.570Z,99634.13
2019-03-13T02:45:30.725Z,99646.75
2019-03-13T02:48:01.055Z,99652.66
2019-03-13T02:50:31.066Z,99648.02
2019-03-13T02:53:01.193Z,99640.50
2019-03-13T02:55:31.103Z,99634.13
2019-03-13T02:58:00.915Z,99635.86
2019-03-13T03:00:42.501Z,99630.09
2019-03-13T03:03:22.764Z,99631.40
2019-03-13T03:05:52.684Z,99633.86
2019-03-13T03:08:23.002Z,99625.28
2019-03-13T03:10:52.920Z,99621.73
2019-03-13T03:13:23.442Z,99617.69
2019-03-13T03:15:53.562Z,99611.42
2019-03-13T03:18:23.381Z,99615.48
2019-03-13T03:20:53.084Z,99606.58
2019-03-13T03:23:23.818Z,99601.01
2019-03-13T03:25:53.856Z,99594.66
2019-03-13T03:28:24.059Z,99587.12
2019-03-13T03:30:54.082Z,99576.57
2019-03-13T03:33:24.213Z,99572.82
2019-03-13T03:35:54.034Z,99578.20
2019-03-13T03:38:23.683Z,99565.87
2019-03-13T03:40:53.842Z,99580.39
2019-03-13T03:43:39.293Z,99573.97
2019-03-13T03:45:55.721Z,99592.28
2019-03-13T03:48:26.064Z,99588.44
2019-03-13T03:50:55.754Z,99596.95
2019-03-13T03:53:25.878Z,99603.05
2019-03-13T03:55:55.803Z,99595.93
2019-03-13T03:58:29.351Z,99604.13
2019-03-13T04:00:57.973Z,99610.87
2019-03-13T04:03:28.228Z,99612.67
2019-03-13T04:05:58.212Z,99624.94
2019-03-13T04:08:28.639Z,99615.09
2019-03-13T04:10:58.774Z,99617.02
2019-03-13T04:13:28.261Z,99620.41
2019-03-13T04:15:57.922Z,99629.52
2019-03-13T04:18:27.479Z,99630.00
2019-03-13T04:20:57.162Z,99633.45
2019-03-13T04:23:26.812Z,99637.55
2019-03-13T04:25:56.483Z,99632.52
2019-03-13T04:28:26.046Z,99632.64
2019-03-13T04:30:55.692Z,99631.75
2019-03-13T04:33:28.060Z,99627.72
2019-03-13T04:35:56.762Z,99617.81
2019-03-13T04:38:26.522Z,99618.53
2019-03-13T04:40:56.197Z,99614.89
2019-03-13T04:43:25.732Z,99604.16
2019-03-13T04:45:55.402Z,99609.66
2019-03-13T04:48:25.074Z,99612.67
2019-03-13T04:50:54.721Z,99624.20
2019-03-13T04:53:24.354Z,99618.66
2019-03-13T04:55:54.021Z,99620.95
2019-03-13T04:58:23.693Z,99624.42
2019-03-13T05:00:53.343Z,99638.43
2019-03-13T05:03:23.038Z,99638.02
2019-03-13T05:06:15.686Z,99645.00
2019-03-13T05:09:15.034Z,99640.22
2019-03-13T05:11:44.717Z,99626.77
2019-03-13T05:14:14.371Z,99631.77
2019-03-13T05:16:44.043Z,99626.53
2019-03-13T05:19:13.716Z,99620.70
2019-03-13T05:21:43.324Z,99619.99
2019-03-13T05:24:12.932Z,99620.34
2019-03-13T05:26:42.655Z,99619.92
2019-03-13T05:29:12.239Z,99621.53
2019-03-13T05:31:41.885Z,99626.13
2019-03-13T05:34:11.355Z,99625.27
2019-03-13T05:36:41.005Z,99631.13
2019-03-13T05:39:10.672Z,99617.81
2019-03-13T05:41:40.302Z,99623.12
2019-03-13T05:44:09.952Z,99634.70
2019-03-13T05:46:39.660Z,99640.32
2019-03-13T05:49:09.294Z,99641.59
2019-03-13T05:51:39.022Z,99649.20
2019-03-13T05:54:08.614Z,99654.07
2019-03-13T05:56:40.714Z,99648.02
2019-03-13T05:59:09.571Z,99663.11
2019-03-13T06:01:39.265Z,99662.86
2019-03-13T06:04:08.781Z,99657.46
2019-03-13T06:06:38.366Z,99662.16
2019-03-13T06:09:08.833Z,99659.73
2019-03-13T06:11:38.496Z,99649.56
2019-03-13T06:14:08.145Z,99652.14
2019-03-13T06:16:37.761Z,99641.53
2019-03-13T06:19:07.529Z,99659.02
2019-03-13T06:21:37.176Z,99657.55
2019-03-13T06:24:06.954Z,99660.63
2019-03-13T06:26:36.665Z,99658.84
2019-03-13T06:29:06.435Z,99662.20
2019-03-13T06:31:36.015Z,99659.47
2019-03-13T06:34:05.694Z,99672.63
2019-03-13T06:36:35.405Z,99675.64
2019-03-13T06:39:06.118Z,99684.25
2019-03-13T06:41:35.798Z,99685.13
2019-03-13T06:44:05.426Z,99694.02
2019-03-13T06:46:35.084Z,99687.91
2019-03-13T06:49:04.756Z,99678.77
2019-03-13T06:51:34.409Z,99682.00
2019-03-13T06:54:04.067Z,99691.70
2019-03-13T06:56:33.975Z,99695.83
2019-03-13T06:59:13.440Z,99705.84
2019-03-13T07:01:58.928Z,99706.41
2019-03-13T07:04:56.698Z,99711.77
2019-03-13T07:07:36.849Z,99712.60
2019-03-13T07:10:19.871Z,99712.47
2019-03-13T07:12:54.706Z,99713.38
2019-03-13T07:15:46.332Z,99713.80
2019-03-13T07:18:43.791Z,99717.66
2019-03-13T07:21:28.754Z,99710.39
2019-03-13T07:24:16.896Z,99700.11
2019-03-13T07:26:56.542Z,99690.78
2019-03-13T07:29:57.589Z,99699.65
2019-03-13T07:32:46.237Z,99687.35
2019-03-13T07:35:34.892Z,99692.64
2019-03-13T07:38:18.227Z,99693.36
2019-03-13T07:41:12.613Z,99696.98
2019-03-13T07:44:13.465Z,99688.28
2019-03-13T07:47:02.007Z,99683.81
2019-03-13T07:49:56.609Z,99689.73
2019-03-13T07:52:49.960Z,99690.42
2019-03-13T07:55:26.841Z,99696.30
2019-03-13T07:58:24.506Z,99689.66
2019-03-13T08:01:11.630Z,99701.39
2019-03-13T08:03:47.169Z,99708.52
2019-03-13T08:06:29.015Z,99709.52
2019-03-13T08:09:08.754Z,99713.61
2019-03-13T08:11:56.753Z,99717.78
2019-03-13T08:14:43.969Z,99712.94
2019-03-13T08:17:20.318Z,99719.86
2019-03-13T08:20:07.575Z,99726.73
2019-03-13T08:22:54.887Z,99717.38
2019-03-13T08:25:52.549Z,99723.61
2019-03-13T08:28:50.214Z,99725.54
2019-03-13T08:31:33.897Z,99739.11
2019-03-13T08:34:22.399Z,99725.81
2019-03-13T08:37:09.926Z,99740.23
2019-03-13T08:39:48.751Z,99728.10
2019-03-13T08:42:35.471Z,99727.20
2019-03-13T08:45:24.445Z,99723.62
2019-03-13T08:48:13.077Z,99719.31
2019-03-13T08:51:10.425Z,99719.56
2019-03-13T08:54:16.583Z,99711.81
2019-03-13T08:56:58.189Z,99699.84
2019-03-13T09:00:05.068Z,99692.99
2019-03-13T09:02:49.226Z,99676.83
2019-03-13T09:05:29.066Z,99675.53
2019-03-13T09:08:16.450Z,99675.39
2019-03-13T09:11:05.053Z,99687.98
2019-03-13T09:14:00.970Z,99682.84
2019-03-13T09:16:38.159Z,99682.43
2019-03-13T09:19:38.586Z,99682.27
2019-03-13T09:22:19.765Z,99676.25
2019-03-13T09:25:16.507Z,99669.67
2019-03-13T09:27:59.837Z,99675.69
2019-03-13T09:31:00.411Z,99676.39
2019-03-13T09:33:54.861Z,99673.29
2019-03-13T09:36:46.383Z,99662.62
2019-03-13T09:39:25.639Z,99672.20
2019-03-13T09:42:13.045Z,99673.86
2019-03-13T09:45:04.465Z,99673.09
2019-03-13T09:47:42.568Z,99685.07
2019-03-13T09:50:18.325Z,99679.77
2019-03-13T09:53:15.491Z,99686.41
2019-03-13T09:56:09.963Z,99668.91
2019-03-13T09:58:44.267Z,99669.39
2019-03-13T10:01:35.804Z,99668.56
2019-03-13T10:04:42.587Z,99675.64
2019-03-13T10:07:40.455Z,99672.89
2019-03-13T10:10:27.581Z,99673.73
2019-03-13T10:13:04.404Z,99682.78
2019-03-13T10:15:51.882Z,99669.97
2019-03-13T10:18:34.800Z,99677.36
2019-03-13T10:21:22.437Z,99683.42
2019-03-13T10:24:07.612Z,99679.14
2019-03-13T10:26:43.977Z,99673.83
2019-03-13T10:29:31.087Z,99667.45
2019-03-13T10:32:31.834Z,99663.47
2019-03-13T10:35:23.257Z,99669.55
2019-03-13T10:38:13.168Z,99653.48
2019-03-13T10:40:53.195Z,99649.24
2019-03-13T10:43:40.612Z,99641.80
2019-03-13T10:46:31.925Z,99636.25
2019-03-13T10:49:22.842Z,99629.13
2019-03-13T10:52:19.887Z,99641.16
2019-03-13T10:55:07.204Z,99626.22
2019-03-13T10:58:01.809Z,99611.36
2019-03-13T11:00:59.494Z,99615.41
2019-03-13T11:03:45.763Z,99617.09
2019-03-13T11:06:33.195Z,99608.75
2019-03-13T11:09:20.101Z,99592.38
2019-03-13T11:12:20.943Z,99609.16
2019-03-13T11:15:18.609Z,99601.77
2019-03-13T11:17:56.624Z,99607.11
2019-03-13T11:20:44.047Z,99614.36
2019-03-13T11:23:47.646Z,99592.61
2019-03-13T11:26:26.977Z,99586.30
2019-03-13T11:29:14.515Z,99584.63
2019-03-13T11:32:03.164Z,99581.60
2019-03-13T11:34:44.495Z,99577.05
2019-03-13T11:37:41.601Z,99581.45
2019-03-13T11:40:41.620Z,99576.58
2019-03-13T11:43:30.066Z,99568.69
2019-03-13T11:46:21.602Z,99578.16
2019-03-13T11:49:09.222Z,99565.83
2019-03-13T11:52:08.113Z,99547.23
2019-03-13T11:54:56.568Z,99552.88
2019-03-13T11:57:36.923Z,99551.50
2019-03-13T12:00:15.554Z,99558.95
2019-03-13T12:03:00.510Z,99549.23
2019-03-13T12:05:51.724Z,99544.13
2019-03-13T12:08:41.107Z,99550.20
2019-03-13T12:11:28.327Z,99544.16
2019-03-13T12:14:17.176Z,99542.01
2019-03-13T12:17:09.003Z,99539.66
2019-03-13T12:19:59.504Z,99540.59
2019-03-13T12:23:03.527Z,99530.91
2019-03-13T12:25:42.243Z,99530.44
2019-03-13T12:28:43.193Z,99536.17
2019-03-13T12:31:30.537Z,99554.26
2019-03-13T12:34:22.534Z,99530.75
2019-03-13T12:37:12.115Z,99523.34
2019-03-13T12:39:59.538Z,99533.88
2019-03-13T12:42:46.702Z,99519.59
2019-03-13T12:45:41.256Z,99545.66
2019-03-13T12:48:28.374Z,99529.33
2019-03-13T12:51:29.221Z,99519.36
2019-03-13T12:54:23.801Z,99523.92
2019-03-13T12:57:18.194Z,99516.62
2019-03-13T13:00:16.173Z,99514.94
2019-03-13T13:02:55.128Z,99511.63
2019-03-13T13:05:46.815Z,99528.58
2019-03-13T13:08:25.240Z,99506.03
2019-03-13T13:11:28.945Z,99500.53
2019-03-13T13:14:17.904Z,99505.39
2019-03-13T13:17:18.539Z,99506.37
2019-03-13T13:19:48.327Z,99499.20
2019-03-13T13:22:17.967Z,99499.70
2019-03-13T13:24:47.637Z,99472.12
2019-03-13T13:27:17.306Z,99495.52
2019-03-13T13:29:46.932Z,99493.38
2019-03-13T13:32:16.626Z,99494.92
2019-03-13T13:34:46.293Z,99500.17
2019-03-13T13:37:15.954Z,99508.34
2019-03-13T13:39:45.553Z,99492.05
2019-03-13T13:42:15.165Z,99477.57
2019-03-13T13:44:44.766Z,99480.89
2019-03-13T13:47:14.423Z,99464.29
2019-03-13T13:49:44.183Z,99479.12
2019-03-13T13:52:13.846Z,99484.21
2019-03-13T13:54:43.495Z,99488.11
2019-03-13T13:57:13.185Z,99489.70
2019-03-13T13:59:43.096Z,99491.30
2019-03-13T14:02:12.797Z,99511.11
2019-03-13T14:04:42.763Z,99493.80
2019-03-13T14:07:12.512Z,99497.77
2019-03-13T14:09:42.297Z,99492.36
2019-03-13T14:12:11.954Z,99485.48
2019-03-13T14:14:41.592Z,99479.16
2019-03-13T14:17:11.235Z,99487.29
2019-03-13T14:19:41.005Z,99482.69
2019-03-13T14:22:10.673Z,99484.14
2019-03-13T14:24:40.327Z,99491.44
2019-03-13T14:27:14.792Z,99477.22
2019-03-13T14:29:41.287Z,99478.94
2019-03-13T14:32:10.938Z,99479.00
2019-03-13T14:34:40.607Z,99485.00
2019-03-13T14:37:10.281Z,99483.70
2019-03-13T14:39:39.924Z,99455.30
2019-03-13T14:42:09.892Z,99465.69
2019-03-13T14:44:39.526Z,99462.16
2019-03-13T14:47:09.678Z,99468.00
2019-03-13T14:49:39.289Z,99474.50
2019-03-13T14:52:09.043Z,99469.30
2019-03-13T14:54:38.686Z,99453.77
2019-03-13T14:57:08.362Z,99460.03
2019-03-13T14:59:38.012Z,99457.29
2019-03-13T15:02:07.663Z,99468.73
2019-03-13T15:04:37.339Z,99451.75
2019-03-13T15:07:07.013Z,99459.45
2019-03-13T15:09:39.181Z,99451.23
2019-03-13T15:12:08.049Z,99445.30
2019-03-13T15:14:37.712Z,99441.91
2019-03-13T15:17:07.430Z,99444.07
2019-03-13T15:19:37.039Z,99438.47
2019-03-13T15:22:06.641Z,99436.46
2019-03-13T15:24:36.275Z,99440.91
2019-03-13T15:27:06.043Z,99431.42
2019-03-13T15:29:35.888Z,99433.92
2019-03-13T15:32:05.672Z,99449.52
2019-03-13T15:34:35.309Z,99449.81
2019-03-13T15:37:04.894Z,99441.28
2019-03-13T15:39:34.547Z,99463.41
2019-03-13T15:42:04.224Z,99457.03
2019-03-13T15:44:33.847Z,99462.09
2019-03-13T15:47:03.531Z,99470.25
2019-03-13T15:49:33.304Z,99455.44
2019-03-13T15:52:03.063Z,99445.37
2019-03-13T15:54:32.717Z,99467.49
2019-03-13T15:57:02.574Z,99460.63
2019-03-13T15:59:32.224Z,99453.30
2019-03-13T16:02:01.896Z,99463.61
2019-03-13T16:04:31.523Z,99461.06
2019-03-13T16:07:01.106Z,99457.41
2019-03-13T16:09:30.762Z,99469.03
2019-03-13T16:12:00.327Z,99475.78
2019-03-13T16:14:29.975Z,99477.95
2019-03-13T16:16:59.557Z,99480.16
2019-03-13T16:19:29.213Z,99481.52
2019-03-13T16:21:58.866Z,99487.18
2019-03-13T16:24:28.534Z,99478.38
2019-03-13T16:26:58.534Z,99471.80
2019-03-13T16:29:30.793Z,99471.11
2019-03-13T16:31:59.717Z,99468.13
2019-03-13T16:34:29.472Z,99463.23
2019-03-13T16:36:59.139Z,99469.81
2019-03-13T16:39:28.771Z,99464.15
2019-03-13T16:41:58.398Z,99460.37
2019-03-13T16:44:28.003Z,99462.51
2019-03-13T16:46:57.646Z,99466.71
2019-03-13T16:49:27.201Z,99454.67
2019-03-13T16:51:56.655Z,99461.02
2019-03-13T16:54:26.322Z,99456.23
2019-03-13T16:56:56.067Z,99455.73
2019-03-13T16:59:25.754Z,99459.84
2019-03-13T17:01:55.388Z,99447.67
2019-03-13T17:04:24.972Z,99444.86
2019-03-13T17:06:54.601Z,99450.98
2019-03-13T17:09:24.257Z,99432.00
2019-03-13T17:11:54.029Z,99432.41
2019-03-13T17:14:23.675Z,99450.25
2019-03-13T17:16:53.313Z,99442.15
2019-03-13T17:19:22.836Z,99442.98
2019-03-13T17:21:52.559Z,99444.92
2019-03-13T17:24:22.230Z,99445.72
2019-03-13T17:26:51.867Z,99445.59
2019-03-13T17:29:21.748Z,99441.88
2019-03-13T17:31:51.343Z,99456.23
2019-03-13T17:34:21.133Z,99438.67
2019-03-13T17:36:50.804Z,99444.52
2019-03-13T17:39:20.441Z,99451.99
2019-03-13T17:41:50.086Z,99448.83
2019-03-13T17:44:19.897Z,99453.30
2019-03-13T17:46:49.517Z,99454.53
2019-03-13T17:49:19.306Z,99468.23
2019-03-13T17:51:48.905Z,99466.87
2019-03-13T17:54:18.582Z,99483.41
2019-03-13T17:56:48.134Z,99491.16
2019-03-13T17:59:17.696Z,99497.66
2019-03-13T18:01:47.366Z,99506.52
2019-03-13T18:04:17.635Z,99508.72
2019-03-13T18:06:47.105Z,99502.32
2019-03-13T18:09:16.874Z,99510.25
2019-03-13T18:11:46.523Z,99496.65
2019-03-13T18:14:16.159Z,99500.06
2019-03-13T18:16:45.714Z,99498.56
2019-03-13T18:19:15.386Z,99507.81
2019-03-13T18:21:44.820Z,99506.86
2019-03-13T18:24:14.653Z,99514.39
2019-03-13T18:26:44.383Z,99518.93
2019-03-13T18:29:14.007Z,99522.45
2019-03-13T18:31:43.572Z,99520.58
2019-03-13T18:34:13.218Z,99523.77
2019-03-13T18:36:51.689Z,99519.07
2019-03-13T18:39:21.374Z,99531.32
2019-03-13T18:41:51.025Z,99546.84
2019-03-13T18:44:20.709Z,99547.36
2019-03-13T18:46:50.328Z,99564.52
2019-03-13T18:49:19.995Z,99577.31
2019-03-13T18:51:49.565Z,99587.66
2019-03-13T18:54:19.195Z,99592.38
2019-03-13T18:56:48.776Z,99600.38
2019-03-13T18:59:18.442Z,99613.97
2019-03-13T19:01:48.302Z,99605.37
2019-03-13T19:04:17.964Z,99602.67
2019-03-13T19:06:47.805Z,99605.60
2019-03-13T19:09:17.722Z,99608.83
2019-03-13T19:11:47.627Z,99599.16
2019-03-13T19:14:17.340Z,99598.34
2019-03-13T19:16:47.064Z,99604.04
2019-03-13T19:19:16.966Z,99614.43
2019-03-13T19:21:46.673Z,99616.23
2019-03-13T19:24:16.702Z,99626.41
2019-03-13T19:26:46.504Z,99612.50
2019-03-13T19:29:16.524Z,99620.89
2019-03-13T19:31:46.544Z,99612.30
2019-03-13T19:34:16.859Z,99614.78
2019-03-13T19:36:46.884Z,99616.80
2019-03-13T19:39:16.902Z,99622.89
2019-03-13T19:41:48.632Z,99620.16
2019-03-13T19:44:18.477Z,99603.21
2019-03-13T19:46:48.288Z,99601.89
2019-03-13T19:49:18.088Z,99597.66
2019-03-13T19:51:48.625Z,99579.53
2019-03-13T19:54:18.378Z,99593.78
2019-03-13T19:56:50.933Z,99587.42
2019-03-13T19:59:22.277Z,99581.64
2019-03-13T20:01:51.976Z,99584.73
2019-03-13T20:04:22.825Z,99578.64
2019-03-13T20:06:52.724Z,99574.41
2019-03-13T20:09:22.528Z,99575.06
2019-03-13T20:11:52.749Z,99578.85
2019-03-13T20:14:22.475Z,99580.33
2019-03-13T20:16:52.282Z,99589.30
2019-03-13T20:19:22.502Z,99588.33
2019-03-13T20:21:52.626Z,99617.12
2019-03-13T20:24:24.270Z,99622.22
2019-03-13T20:26:54.295Z,99628.14
2019-03-13T20:29:24.447Z,99635.74
2019-03-13T20:31:54.442Z,99650.70
2019-03-13T20:34:24.554Z,99654.29
2019-03-13T20:36:54.472Z,99660.73
2019-03-13T20:39:24.600Z,99661.77
2019-03-13T20:41:54.760Z,99665.41
2019-03-13T20:44:24.928Z,99665.77
2019-03-13T20:46:55.561Z,99699.09
2019-03-13T20:49:26.914Z,99692.02
2019-03-13T20:51:56.759Z,99680.13
2019-03-13T20:54:26.630Z,99688.56
2019-03-13T20:56:56.775Z,99695.19
2019-03-13T20:59:27.795Z,99711.80
2019-03-13T21:02:00.237Z,99698.13
2019-03-13T21:04:29.568Z,99704.26
2019-03-13T21:06:59.508Z,99718.92
2019-03-13T21:09:29.718Z,99721.87
2019-03-13T21:12:00.451Z,99735.53
2019-03-13T21:14:30.193Z,99717.73
2019-03-13T21:16:59.859Z,99727.80
2019-03-13T21:19:29.702Z,99733.05
2019-03-13T21:22:00.701Z,99717.66
2019-03-13T21:24:30.941Z,99710.86
2019-03-13T21:27:00.818Z,99716.16
2019-03-13T21:29:30.755Z,99731.45
2019-03-13T21:32:00.696Z,99730.99
2019-03-13T21:34:31.561Z,99747.00
2019-03-13T21:37:01.414Z,99740.48
2019-03-13T21:39:31.285Z,99740.05
2019-03-13T21:42:00.962Z,99748.84
2019-03-13T21:44:31.651Z,99751.41
2019-03-13T21:47:01.297Z,99744.84
2019-03-13T21:49:31.182Z,99751.07
2019-03-13T21:52:00.821Z,99749.41
2019-03-13T21:54:30.622Z,99747.15
2019-03-13T21:57:00.167Z,99744.95
2019-03-13T21:59:29.931Z,99745.69
2019-03-13T22:01:59.494Z,99748.38
2019-03-13T22:04:29.104Z,99747.25
2019-03-13T22:06:58.830Z,99754.63
2019-03-13T22:09:28.455Z,99752.23
2019-03-13T22:11:58.023Z,99758.50
2019-03-13T22:14:27.706Z,99760.19
2019-03-13T22:16:57.367Z,99764.66
2019-03-13T22:19:27.021Z,99772.73
2019-03-13T22:21:56.563Z,99778.32
2019-03-13T22:24:26.347Z,99796.47
2019-03-13T22:26:55.949Z,99808.67
2019-03-13T22:29:25.427Z,99828.23
2019-03-13T22:31:55.081Z,99836.23
2019-03-13T22:34:24.734Z,99829.30
2019-03-13T22:36:54.303Z,99813.09
2019-03-13T22:39:23.955Z,99824.53
2019-03-13T22:41:53.621Z,99810.65
2019-03-13T22:44:23.375Z,99823.56
2019-03-13T22:46:53.151Z,99822.15
2019-03-13T22:49:23.643Z,99807.64
2019-03-13T22:51:53.461Z,99813.61
2019-03-13T22:54:24.292Z,99817.55
2019-03-13T22:56:54.417Z,99827.39
2019-03-13T22:59:24.844Z,99781.20
2019-03-13T23:01:55.164Z,99814.92
2019-03-13T23:04:25.880Z,99824.33
2019-03-13T23:06:56.027Z,99822.61
2019-03-13T23:09:26.352Z,99824.13
2019-03-13T23:11:56.463Z,99803.50
2019-03-13T23:14:26.587Z,99798.06
2019-03-13T23:16:56.906Z,99798.80
2019-03-13T23:19:26.929Z,99802.41
2019-03-13T23:21:57.051Z,99810.95
2019-03-13T23:24:26.857Z,99819.09
2019-03-13T23:26:56.877Z,99830.06
2019-03-13T23:29:26.813Z,99834.52
2019-03-13T23:31:56.602Z,99831.38
2019-03-13T23:34:26.225Z,99822.70
2019-03-13T23:36:55.922Z,99820.21
2019-03-13T23:39:25.480Z,99828.88
2019-03-13T23:41:55.117Z,99819.98
2019-03-13T23:44:24.762Z,99830.31
2019-03-13T23:46:54.432Z,99829.80
2019-03-13T23:49:24.175Z,99830.64
2019-03-13T23:51:53.844Z,99821.93
2019-03-13T23:54:23.506Z,99841.77
2019-03-13T23:56:53.192Z,99851.89
2019-03-13T23:59:22.835Z,99863.33
